sensor_id;sensor_type;location;lat;lon;timestamp;temperature;humidity
30473;DHT22;17263;48.160;11.452;2022-10-31T00:01:35;10.80;99.90
30473;DHT22;17263;48.160;11.452;2022-10-31T00:04:03;10.70;99.90
30473;DHT22;17263;48.160;11.452;2022-10-31T00:06:30;10.70;99.90
30473;DHT22;17263;48.160;11.452;2022-10-31T00:08:58;10.70;99.90
30473;DHT22;17263;48.160;11.452;2022-10-31T00:11:25;10.70;99.90
30473;DHT22;17263;48.160;11.452;2022-10-31T00:13:52;10.70;99.90
30473;DHT22;17263;48.160;11.452;2022-10-31T00:16:24;10.70;99.90
30473;DHT22;17263;48.160;11.452;2022-10-31T00:18:51;10.70;99.90
30473;DHT22;17263;48.160;11.452;2022-10-31T00:21:18;10.70;99.90
30473;DHT22;17263;48.160;11.452;2022-10-31T00:23:44;10.70;99.90
30473;DHT22;17263;48.160;11.452;2022-10-31T00:26:11;10.70;99.90
30473;DHT22;17263;48.160;11.452;2022-10-31T00:28:37;10.70;99.90
30473;DHT22;17263;48.160;11.452;2022-10-31T00:31:06;10.70;99.90
30473;DHT22;17263;48.160;11.452;2022-10-31T00:33:37;10.70;99.90
30473;DHT22;17263;48.160;11.452;2022-10-31T00:36:05;10.60;99.90
30473;DHT22;17263;48.160;11.452;2022-10-31T00:38:31;10.60;99.90
30473;DHT22;17263;48.160;11.452;2022-10-31T00:40:57;10.60;99.90
30473;DHT22;17263;48.160;11.452;2022-10-31T00:43:23;10.60;99.90
30473;DHT22;17263;48.160;11.452;2022-10-31T00:45:50;10.60;99.90
30473;DHT22;17263;48.160;11.452;2022-10-31T00:48:16;10.60;99.90
30473;DHT22;17263;48.160;11.452;2022-10-31T00:50:42;10.60;99.90
30473;DHT22;17263;48.160;11.452;2022-10-31T00:53:08;10.60;99.90
30473;DHT22;17263;48.160;11.452;2022-10-31T00:55:34;10.60;99.90
30473;DHT22;17263;48.160;11.452;2022-10-31T00:58:00;10.60;99.90
30473;DHT22;17263;48.160;11.452;2022-10-31T01:00:27;10.70;99.90
30473;DHT22;17263;48.160;11.452;2022-10-31T01:02:53;10.70;99.90
30473;DHT22;17263;48.160;11.452;2022-10-31T01:05:19;10.70;99.90
30473;DHT22;17263;48.160;11.452;2022-10-31T01:07:45;10.70;99.90
30473;DHT22;17263;48.160;11.452;2022-10-31T01:10:11;10.70;99.90
30473;DHT22;17263;48.160;11.452;2022-10-31T01:12:43;10.60;99.90
30473;DHT22;17263;48.160;11.452;2022-10-31T01:15:11;10.60;99.90
30473;DHT22;17263;48.160;11.452;2022-10-31T01:17:38;10.50;99.90
30473;DHT22;17263;48.160;11.452;2022-10-31T01:20:06;10.50;99.90
30473;DHT22;17263;48.160;11.452;2022-10-31T01:22:33;10.40;99.90
30473;DHT22;17263;48.160;11.452;2022-10-31T01:24:59;10.40;99.90
30473;DHT22;17263;48.160;11.452;2022-10-31T01:27:26;10.40;99.90
30473;DHT22;17263;48.160;11.452;2022-10-31T01:29:52;10.40;99.90
30473;DHT22;17263;48.160;11.452;2022-10-31T01:32:18;10.50;99.90
30473;DHT22;17263;48.160;11.452;2022-10-31T01:34:44;10.40;99.90
30473;DHT22;17263;48.160;11.452;2022-10-31T01:37:10;10.40;99.90
30473;DHT22;17263;48.160;11.452;2022-10-31T01:39:36;10.40;99.90
30473;DHT22;17263;48.160;11.452;2022-10-31T01:42:02;10.40;99.90
30473;DHT22;17263;48.160;11.452;2022-10-31T01:47:05;10.30;99.90
30473;DHT22;17263;48.160;11.452;2022-10-31T01:50:03;10.30;99.90
30473;DHT22;17263;48.160;11.452;2022-10-31T01:52:38;10.20;99.90
30473;DHT22;17263;48.160;11.452;2022-10-31T01:57:35;10.20;99.90
30473;DHT22;17263;48.160;11.452;2022-10-31T02:00:07;10.20;99.90
30473;DHT22;17263;48.160;11.452;2022-10-31T02:02:33;10.10;99.90
30473;DHT22;17263;48.160;11.452;2022-10-31T02:05:01;10.10;99.90
30473;DHT22;17263;48.160;11.452;2022-10-31T02:07:34;10.10;99.90
30473;DHT22;17263;48.160;11.452;2022-10-31T02:10:03;10.00;99.90
30473;DHT22;17263;48.160;11.452;2022-10-31T02:12:31;10.10;99.90
30473;DHT22;17263;48.160;11.452;2022-10-31T02:14:59;10.10;99.90
30473;DHT22;17263;48.160;11.452;2022-10-31T02:17:26;10.10;99.90
30473;DHT22;17263;48.160;11.452;2022-10-31T02:20:05;10.00;99.90
30473;DHT22;17263;48.160;11.452;2022-10-31T02:31:35;9.90;99.90
30473;DHT22;17263;48.160;11.452;2022-10-31T02:34:17;9.90;99.90
30473;DHT22;17263;48.160;11.452;2022-10-31T02:37:09;9.90;99.90
30473;DHT22;17263;48.160;11.452;2022-10-31T02:39:53;9.90;99.90
30473;DHT22;17263;48.160;11.452;2022-10-31T02:42:29;9.90;99.90
30473;DHT22;17263;48.160;11.452;2022-10-31T02:45:25;9.80;99.90
30473;DHT22;17263;48.160;11.452;2022-10-31T02:47:55;9.80;99.90
30473;DHT22;17263;48.160;11.452;2022-10-31T02:50:31;9.80;99.90
30473;DHT22;17263;48.160;11.452;2022-10-31T02:52:58;9.80;99.90
30473;DHT22;17263;48.160;11.452;2022-10-31T02:57:58;9.90;99.90
30473;DHT22;17263;48.160;11.452;2022-10-31T03:00:25;9.90;99.90
30473;DHT22;17263;48.160;11.452;2022-10-31T03:03:08;9.90;99.90
30473;DHT22;17263;48.160;11.452;2022-10-31T03:08:26;9.80;99.90
30473;DHT22;17263;48.160;11.452;2022-10-31T03:10:59;9.80;99.90
30473;DHT22;17263;48.160;11.452;2022-10-31T03:13:39;9.80;99.90
30473;DHT22;17263;48.160;11.452;2022-10-31T03:18:37;9.80;99.90
30473;DHT22;17263;48.160;11.452;2022-10-31T03:21:09;9.80;99.90
30473;DHT22;17263;48.160;11.452;2022-10-31T03:23:39;9.80;99.90
30473;DHT22;17263;48.160;11.452;2022-10-31T03:26:07;9.70;99.90
30473;DHT22;17263;48.160;11.452;2022-10-31T03:28:41;9.70;99.90
30473;DHT22;17263;48.160;11.452;2022-10-31T03:31:10;9.70;99.90
30473;DHT22;17263;48.160;11.452;2022-10-31T03:33:40;9.70;99.90
30473;DHT22;17263;48.160;11.452;2022-10-31T03:36:10;9.70;99.90
30473;DHT22;17263;48.160;11.452;2022-10-31T03:38:37;9.80;99.90
30473;DHT22;17263;48.160;11.452;2022-10-31T03:41:05;9.80;99.90
30473;DHT22;17263;48.160;11.452;2022-10-31T03:43:37;9.80;99.90
30473;DHT22;17263;48.160;11.452;2022-10-31T03:46:04;9.70;99.90
30473;DHT22;17263;48.160;11.452;2022-10-31T03:48:31;9.70;99.90
30473;DHT22;17263;48.160;11.452;2022-10-31T03:53:39;9.70;99.90
30473;DHT22;17263;48.160;11.452;2022-10-31T03:58:39;9.70;99.90
30473;DHT22;17263;48.160;11.452;2022-10-31T04:01:12;9.70;99.90
30473;DHT22;17263;48.160;11.452;2022-10-31T04:03:41;9.70;99.90
30473;DHT22;17263;48.160;11.452;2022-10-31T04:06:11;9.70;99.90
30473;DHT22;17263;48.160;11.452;2022-10-31T04:08:47;9.70;99.90
30473;DHT22;17263;48.160;11.452;2022-10-31T04:11:15;9.70;99.90
30473;DHT22;17263;48.160;11.452;2022-10-31T04:13:44;9.70;99.90
30473;DHT22;17263;48.160;11.452;2022-10-31T04:16:13;9.60;99.90
30473;DHT22;17263;48.160;11.452;2022-10-31T04:18:40;9.60;99.90
30473;DHT22;17263;48.160;11.452;2022-10-31T04:21:07;9.60;99.90
30473;DHT22;17263;48.160;11.452;2022-10-31T04:23:35;9.60;99.90
30473;DHT22;17263;48.160;11.452;2022-10-31T04:26:01;9.60;99.90
30473;DHT22;17263;48.160;11.452;2022-10-31T04:28:27;9.60;99.90
30473;DHT22;17263;48.160;11.452;2022-10-31T04:30:53;9.60;99.90
30473;DHT22;17263;48.160;11.452;2022-10-31T04:33:19;9.50;99.90
30473;DHT22;17263;48.160;11.452;2022-10-31T04:35:45;9.50;99.90
30473;DHT22;17263;48.160;11.452;2022-10-31T04:38:12;9.50;99.90
30473;DHT22;17263;48.160;11.452;2022-10-31T04:40:38;9.50;99.90
30473;DHT22;17263;48.160;11.452;2022-10-31T04:43:04;9.50;99.90
30473;DHT22;17263;48.160;11.452;2022-10-31T04:45:30;9.50;99.90
30473;DHT22;17263;48.160;11.452;2022-10-31T04:47:56;9.40;99.90
30473;DHT22;17263;48.160;11.452;2022-10-31T04:50:22;9.40;99.90
30473;DHT22;17263;48.160;11.452;2022-10-31T04:52:48;9.40;99.90
30473;DHT22;17263;48.160;11.452;2022-10-31T04:55:15;9.30;99.90
30473;DHT22;17263;48.160;11.452;2022-10-31T04:57:42;9.30;99.90
30473;DHT22;17263;48.160;11.452;2022-10-31T05:00:09;9.20;99.90
30473;DHT22;17263;48.160;11.452;2022-10-31T05:02:43;9.20;99.90
30473;DHT22;17263;48.160;11.452;2022-10-31T05:05:09;9.30;99.90
30473;DHT22;17263;48.160;11.452;2022-10-31T05:07:41;9.20;99.90
30473;DHT22;17263;48.160;11.452;2022-10-31T05:10:09;9.20;99.90
30473;DHT22;17263;48.160;11.452;2022-10-31T05:12:35;9.20;99.90
30473;DHT22;17263;48.160;11.452;2022-10-31T05:15:02;9.20;99.90
30473;DHT22;17263;48.160;11.452;2022-10-31T05:17:28;9.20;99.90
30473;DHT22;17263;48.160;11.452;2022-10-31T05:19:54;9.20;99.90
30473;DHT22;17263;48.160;11.452;2022-10-31T05:22:20;9.20;99.90
30473;DHT22;17263;48.160;11.452;2022-10-31T05:24:46;9.20;99.90
30473;DHT22;17263;48.160;11.452;2022-10-31T05:27:12;9.10;99.90
30473;DHT22;17263;48.160;11.452;2022-10-31T05:29:38;9.20;99.90
30473;DHT22;17263;48.160;11.452;2022-10-31T05:32:04;9.10;99.90
30473;DHT22;17263;48.160;11.452;2022-10-31T05:34:30;9.20;99.90
30473;DHT22;17263;48.160;11.452;2022-10-31T05:36:56;9.10;99.90
30473;DHT22;17263;48.160;11.452;2022-10-31T05:39:22;9.20;99.90
30473;DHT22;17263;48.160;11.452;2022-10-31T05:41:48;9.20;99.90
30473;DHT22;17263;48.160;11.452;2022-10-31T05:44:14;9.20;99.90
30473;DHT22;17263;48.160;11.452;2022-10-31T05:46:40;9.20;99.90
30473;DHT22;17263;48.160;11.452;2022-10-31T05:49:06;9.10;99.90
30473;DHT22;17263;48.160;11.452;2022-10-31T05:51:32;9.10;99.90
30473;DHT22;17263;48.160;11.452;2022-10-31T05:53:58;9.10;99.90
30473;DHT22;17263;48.160;11.452;2022-10-31T05:56:24;9.10;99.90
30473;DHT22;17263;48.160;11.452;2022-10-31T05:58:50;9.10;99.90
30473;DHT22;17263;48.160;11.452;2022-10-31T06:01:16;9.10;99.90
30473;DHT22;17263;48.160;11.452;2022-10-31T06:03:42;9.10;99.90
30473;DHT22;17263;48.160;11.452;2022-10-31T06:06:08;9.20;99.90
30473;DHT22;17263;48.160;11.452;2022-10-31T06:08:35;9.20;99.90
30473;DHT22;17263;48.160;11.452;2022-10-31T06:11:01;9.20;99.90
30473;DHT22;17263;48.160;11.452;2022-10-31T06:13:27;9.20;99.90
30473;DHT22;17263;48.160;11.452;2022-10-31T06:15:53;9.20;99.90
30473;DHT22;17263;48.160;11.452;2022-10-31T06:18:19;9.20;99.90
30473;DHT22;17263;48.160;11.452;2022-10-31T06:20:45;9.20;99.90
30473;DHT22;17263;48.160;11.452;2022-10-31T06:23:11;9.20;99.90
30473;DHT22;17263;48.160;11.452;2022-10-31T06:25:37;9.20;99.90
30473;DHT22;17263;48.160;11.452;2022-10-31T06:28:04;9.20;99.90
30473;DHT22;17263;48.160;11.452;2022-10-31T06:30:30;9.20;99.90
30473;DHT22;17263;48.160;11.452;2022-10-31T06:33:02;9.20;99.90
30473;DHT22;17263;48.160;11.452;2022-10-31T06:35:28;9.20;99.90
30473;DHT22;17263;48.160;11.452;2022-10-31T06:37:54;9.30;99.90
30473;DHT22;17263;48.160;11.452;2022-10-31T06:40:21;9.30;99.90
30473;DHT22;17263;48.160;11.452;2022-10-31T06:42:47;9.40;99.90
30473;DHT22;17263;48.160;11.452;2022-10-31T06:45:13;9.40;99.90
30473;DHT22;17263;48.160;11.452;2022-10-31T06:47:39;9.50;99.90
30473;DHT22;17263;48.160;11.452;2022-10-31T06:50:05;9.50;99.90
30473;DHT22;17263;48.160;11.452;2022-10-31T06:52:32;9.60;99.90
30473;DHT22;17263;48.160;11.452;2022-10-31T06:54:58;9.60;99.90
30473;DHT22;17263;48.160;11.452;2022-10-31T06:57:24;9.60;99.90
30473;DHT22;17263;48.160;11.452;2022-10-31T06:59:50;9.70;99.90
30473;DHT22;17263;48.160;11.452;2022-10-31T07:02:16;9.80;99.90
30473;DHT22;17263;48.160;11.452;2022-10-31T07:04:42;9.90;99.90
30473;DHT22;17263;48.160;11.452;2022-10-31T07:07:08;9.90;99.90
30473;DHT22;17263;48.160;11.452;2022-10-31T07:09:34;10.00;99.90
30473;DHT22;17263;48.160;11.452;2022-10-31T07:12:00;10.10;99.90
30473;DHT22;17263;48.160;11.452;2022-10-31T07:14:26;10.10;99.90
30473;DHT22;17263;48.160;11.452;2022-10-31T07:16:52;10.20;99.90
30473;DHT22;17263;48.160;11.452;2022-10-31T07:19:18;10.30;99.90
30473;DHT22;17263;48.160;11.452;2022-10-31T07:21:44;10.30;99.90
30473;DHT22;17263;48.160;11.452;2022-10-31T07:24:10;10.40;99.90
30473;DHT22;17263;48.160;11.452;2022-10-31T07:26:36;10.50;99.90
30473;DHT22;17263;48.160;11.452;2022-10-31T07:29:02;10.60;99.90
30473;DHT22;17263;48.160;11.452;2022-10-31T07:31:29;10.70;99.90
30473;DHT22;17263;48.160;11.452;2022-10-31T07:33:55;10.80;99.90
30473;DHT22;17263;48.160;11.452;2022-10-31T07:36:21;10.80;99.90
30473;DHT22;17263;48.160;11.452;2022-10-31T07:38:47;11.00;99.90
30473;DHT22;17263;48.160;11.452;2022-10-31T07:41:13;11.10;99.90
30473;DHT22;17263;48.160;11.452;2022-10-31T07:43:40;11.20;99.90
30473;DHT22;17263;48.160;11.452;2022-10-31T07:46:06;11.30;99.90
30473;DHT22;17263;48.160;11.452;2022-10-31T07:48:32;11.50;99.90
30473;DHT22;17263;48.160;11.452;2022-10-31T07:50:58;11.70;99.90
30473;DHT22;17263;48.160;11.452;2022-10-31T07:53:24;12.00;99.90
30473;DHT22;17263;48.160;11.452;2022-10-31T07:55:50;12.20;99.90
30473;DHT22;17263;48.160;11.452;2022-10-31T07:58:17;12.40;99.90
30473;DHT22;17263;48.160;11.452;2022-10-31T08:00:45;12.50;99.90
30473;DHT22;17263;48.160;11.452;2022-10-31T08:03:16;12.50;99.90
30473;DHT22;17263;48.160;11.452;2022-10-31T08:05:42;12.60;99.90
30473;DHT22;17263;48.160;11.452;2022-10-31T08:08:12;12.70;99.90
30473;DHT22;17263;48.160;11.452;2022-10-31T08:10:39;12.90;99.90
30473;DHT22;17263;48.160;11.452;2022-10-31T08:13:11;13.30;99.90
30473;DHT22;17263;48.160;11.452;2022-10-31T08:15:37;14.00;99.90
30473;DHT22;17263;48.160;11.452;2022-10-31T08:18:13;14.60;99.90
30473;DHT22;17263;48.160;11.452;2022-10-31T08:20:41;15.00;99.90
30473;DHT22;17263;48.160;11.452;2022-10-31T08:23:09;15.30;99.90
30473;DHT22;17263;48.160;11.452;2022-10-31T08:25:35;15.60;99.90
30473;DHT22;17263;48.160;11.452;2022-10-31T08:28:02;15.60;99.90
30473;DHT22;17263;48.160;11.452;2022-10-31T08:30:30;15.50;99.90
30473;DHT22;17263;48.160;11.452;2022-10-31T08:33:01;15.40;99.90
30473;DHT22;17263;48.160;11.452;2022-10-31T08:35:28;15.40;99.90
30473;DHT22;17263;48.160;11.452;2022-10-31T08:37:55;15.30;99.90
30473;DHT22;17263;48.160;11.452;2022-10-31T08:40:23;15.30;99.90
30473;DHT22;17263;48.160;11.452;2022-10-31T08:42:57;15.30;99.90
30473;DHT22;17263;48.160;11.452;2022-10-31T08:45:23;15.40;99.90
30473;DHT22;17263;48.160;11.452;2022-10-31T08:47:50;15.30;99.90
30473;DHT22;17263;48.160;11.452;2022-10-31T08:50:16;15.40;99.90
30473;DHT22;17263;48.160;11.452;2022-10-31T08:52:42;15.40;99.90
30473;DHT22;17263;48.160;11.452;2022-10-31T08:55:08;15.40;99.90
30473;DHT22;17263;48.160;11.452;2022-10-31T08:57:34;15.40;99.90
30473;DHT22;17263;48.160;11.452;2022-10-31T09:00:00;15.50;99.90
30473;DHT22;17263;48.160;11.452;2022-10-31T09:02:26;15.60;99.90
30473;DHT22;17263;48.160;11.452;2022-10-31T09:04:52;15.60;99.90
30473;DHT22;17263;48.160;11.452;2022-10-31T09:07:18;15.70;99.90
30473;DHT22;17263;48.160;11.452;2022-10-31T09:09:44;15.70;99.90
30473;DHT22;17263;48.160;11.452;2022-10-31T09:12:10;15.80;99.90
30473;DHT22;17263;48.160;11.452;2022-10-31T09:14:36;15.80;99.90
30473;DHT22;17263;48.160;11.452;2022-10-31T09:17:02;15.90;99.90
30473;DHT22;17263;48.160;11.452;2022-10-31T09:19:28;15.90;99.90
30473;DHT22;17263;48.160;11.452;2022-10-31T09:21:54;16.00;99.90
30473;DHT22;17263;48.160;11.452;2022-10-31T09:24:20;16.10;99.90
30473;DHT22;17263;48.160;11.452;2022-10-31T09:26:46;16.20;99.90
30473;DHT22;17263;48.160;11.452;2022-10-31T09:29:12;16.20;99.90
30473;DHT22;17263;48.160;11.452;2022-10-31T09:31:38;16.30;99.90
30473;DHT22;17263;48.160;11.452;2022-10-31T09:34:04;16.30;99.90
30473;DHT22;17263;48.160;11.452;2022-10-31T09:36:30;16.40;99.90
30473;DHT22;17263;48.160;11.452;2022-10-31T09:38:57;16.50;99.90
30473;DHT22;17263;48.160;11.452;2022-10-31T09:47:23;16.50;99.90
30473;DHT22;17263;48.160;11.452;2022-10-31T09:53:00;16.40;99.90
30473;DHT22;17263;48.160;11.452;2022-10-31T09:55:36;16.30;99.90
30473;DHT22;17263;48.160;11.452;2022-10-31T09:58:03;16.30;99.90
30473;DHT22;17263;48.160;11.452;2022-10-31T10:00:30;16.40;99.90
30473;DHT22;17263;48.160;11.452;2022-10-31T10:03:10;16.40;99.90
30473;DHT22;17263;48.160;11.452;2022-10-31T10:06:27;16.50;99.90
30473;DHT22;17263;48.160;11.452;2022-10-31T10:08:29;16.60;99.90
30473;DHT22;17263;48.160;11.452;2022-10-31T10:16:53;17.00;99.90
30473;DHT22;17263;48.160;11.452;2022-10-31T10:19:41;17.20;99.90
30473;DHT22;17263;48.160;11.452;2022-10-31T10:25:20;17.40;99.90
30473;DHT22;17263;48.160;11.452;2022-10-31T10:33:13;17.70;99.90
30473;DHT22;17263;48.160;11.452;2022-10-31T10:35:52;17.80;99.90
30473;DHT22;17263;48.160;11.452;2022-10-31T10:40:55;17.90;99.90
30473;DHT22;17263;48.160;11.452;2022-10-31T10:46:16;18.00;99.90
30473;DHT22;17263;48.160;11.452;2022-10-31T10:49:24;18.20;99.90
30473;DHT22;17263;48.160;11.452;2022-10-31T10:51:59;18.20;99.90
30473;DHT22;17263;48.160;11.452;2022-10-31T11:00:00;18.30;99.90
30473;DHT22;17263;48.160;11.452;2022-10-31T11:02:29;18.30;99.90
30473;DHT22;17263;48.160;11.452;2022-10-31T11:04:58;18.30;99.90
30473;DHT22;17263;48.160;11.452;2022-10-31T11:07:25;18.30;99.90
30473;DHT22;17263;48.160;11.452;2022-10-31T11:10:11;18.30;99.90
30473;DHT22;17263;48.160;11.452;2022-10-31T11:12:40;18.30;99.90
30473;DHT22;17263;48.160;11.452;2022-10-31T11:15:25;18.30;99.90
30473;DHT22;17263;48.160;11.452;2022-10-31T11:17:54;18.40;99.90
30473;DHT22;17263;48.160;11.452;2022-10-31T11:20:28;18.50;99.90
30473;DHT22;17263;48.160;11.452;2022-10-31T11:23:19;18.50;99.90
30473;DHT22;17263;48.160;11.452;2022-10-31T11:26:06;18.70;99.90
30473;DHT22;17263;48.160;11.452;2022-10-31T11:28:41;18.70;99.90
30473;DHT22;17263;48.160;11.452;2022-10-31T11:31:11;18.80;99.90
30473;DHT22;17263;48.160;11.452;2022-10-31T11:33:45;18.80;99.90
30473;DHT22;17263;48.160;11.452;2022-10-31T11:38:43;18.90;99.90
30473;DHT22;17263;48.160;11.452;2022-10-31T11:41:13;18.90;99.90
30473;DHT22;17263;48.160;11.452;2022-10-31T11:43:52;19.00;99.90
30473;DHT22;17263;48.160;11.452;2022-10-31T11:49:00;19.10;99.90
30473;DHT22;17263;48.160;11.452;2022-10-31T11:51:29;19.20;99.90
30473;DHT22;17263;48.160;11.452;2022-10-31T11:53:58;19.30;99.90
30473;DHT22;17263;48.160;11.452;2022-10-31T11:56:25;19.40;99.90
30473;DHT22;17263;48.160;11.452;2022-10-31T11:58:58;19.40;99.90
30473;DHT22;17263;48.160;11.452;2022-10-31T12:01:30;19.50;99.90
30473;DHT22;17263;48.160;11.452;2022-10-31T12:04:06;19.50;99.90
30473;DHT22;17263;48.160;11.452;2022-10-31T12:06:38;19.40;99.90
30473;DHT22;17263;48.160;11.452;2022-10-31T12:09:24;19.40;99.90
30473;DHT22;17263;48.160;11.452;2022-10-31T12:14:48;19.30;99.90
30473;DHT22;17263;48.160;11.452;2022-10-31T12:17:26;19.10;99.90
30473;DHT22;17263;48.160;11.452;2022-10-31T12:22:42;18.90;99.90
30473;DHT22;17263;48.160;11.452;2022-10-31T12:28:24;18.80;99.90
30473;DHT22;17263;48.160;11.452;2022-10-31T12:36:23;18.70;99.90
30473;DHT22;17263;48.160;11.452;2022-10-31T12:39:24;18.70;99.90
30473;DHT22;17263;48.160;11.452;2022-10-31T12:42:13;18.80;99.90
30473;DHT22;17263;48.160;11.452;2022-10-31T13:00:00;19.00;99.90
30473;DHT22;17263;48.160;11.452;2022-10-31T13:02:51;19.10;99.90
30473;DHT22;17263;48.160;11.452;2022-10-31T13:05:30;19.10;99.90
30473;DHT22;17263;48.160;11.452;2022-10-31T13:08:00;19.20;99.90
30473;DHT22;17263;48.160;11.452;2022-10-31T13:10:45;19.30;99.90
30473;DHT22;17263;48.160;11.452;2022-10-31T13:16:41;19.30;99.90
30473;DHT22;17263;48.160;11.452;2022-10-31T13:18:47;19.30;99.90
30473;DHT22;17263;48.160;11.452;2022-10-31T13:21:42;19.20;99.90
30473;DHT22;17263;48.160;11.452;2022-10-31T13:24:18;19.30;99.90
30473;DHT22;17263;48.160;11.452;2022-10-31T13:26:57;19.20;99.90
30473;DHT22;17263;48.160;11.452;2022-10-31T13:29:38;19.10;99.90
30473;DHT22;17263;48.160;11.452;2022-10-31T13:32:06;19.10;99.90
30473;DHT22;17263;48.160;11.452;2022-10-31T13:34:37;19.00;99.90
30473;DHT22;17263;48.160;11.452;2022-10-31T13:40:20;18.70;99.90
30473;DHT22;17263;48.160;11.452;2022-10-31T13:43:05;18.60;99.90
30473;DHT22;17263;48.160;11.452;2022-10-31T13:45:32;18.50;99.90
30473;DHT22;17263;48.160;11.452;2022-10-31T13:48:00;18.40;99.90
30473;DHT22;17263;48.160;11.452;2022-10-31T13:50:31;18.30;99.90
30473;DHT22;17263;48.160;11.452;2022-10-31T13:53:11;18.30;99.90
30473;DHT22;17263;48.160;11.452;2022-10-31T13:58:26;18.20;99.90
30473;DHT22;17263;48.160;11.452;2022-10-31T14:03:42;18.20;99.90
30473;DHT22;17263;48.160;11.452;2022-10-31T14:06:11;18.20;99.90
30473;DHT22;17263;48.160;11.452;2022-10-31T14:08:40;18.20;99.90
30473;DHT22;17263;48.160;11.452;2022-10-31T14:11:09;18.40;99.90
30473;DHT22;17263;48.160;11.452;2022-10-31T14:13:45;18.50;99.90
30473;DHT22;17263;48.160;11.452;2022-10-31T14:16:22;18.50;99.90
30473;DHT22;17263;48.160;11.452;2022-10-31T14:18:56;18.50;99.90
30473;DHT22;17263;48.160;11.452;2022-10-31T14:23:50;18.60;99.90
30473;DHT22;17263;48.160;11.452;2022-10-31T14:28:52;18.50;99.90
30473;DHT22;17263;48.160;11.452;2022-10-31T14:31:42;18.60;99.90
30473;DHT22;17263;48.160;11.452;2022-10-31T14:36:50;18.40;99.90
30473;DHT22;17263;48.160;11.452;2022-10-31T14:40:11;18.40;99.90
30473;DHT22;17263;48.160;11.452;2022-10-31T14:45:05;18.10;99.90
30473;DHT22;17263;48.160;11.452;2022-10-31T14:50:48;18.00;99.90
30473;DHT22;17263;48.160;11.452;2022-10-31T14:53:36;18.00;99.90
30473;DHT22;17263;48.160;11.452;2022-10-31T14:56:09;18.00;99.90
30473;DHT22;17263;48.160;11.452;2022-10-31T14:58:40;18.10;99.90
30473;DHT22;17263;48.160;11.452;2022-10-31T15:01:21;17.90;99.90
30473;DHT22;17263;48.160;11.452;2022-10-31T15:03:48;17.80;99.90
30473;DHT22;17263;48.160;11.452;2022-10-31T15:06:17;17.70;99.90
30473;DHT22;17263;48.160;11.452;2022-10-31T15:08:49;17.60;99.90
30473;DHT22;17263;48.160;11.452;2022-10-31T15:11:36;17.50;99.90
30473;DHT22;17263;48.160;11.452;2022-10-31T15:14:28;17.50;99.90
30473;DHT22;17263;48.160;11.452;2022-10-31T15:17:01;17.60;99.90
30473;DHT22;17263;48.160;11.452;2022-10-31T15:19:30;17.60;99.90
30473;DHT22;17263;48.160;11.452;2022-10-31T15:21:57;17.60;99.90
30473;DHT22;17263;48.160;11.452;2022-10-31T15:24:30;17.60;99.90
30473;DHT22;17263;48.160;11.452;2022-10-31T15:26:57;17.50;99.90
30473;DHT22;17263;48.160;11.452;2022-10-31T15:29:25;17.40;99.90
30473;DHT22;17263;48.160;11.452;2022-10-31T15:31:52;17.40;99.90
30473;DHT22;17263;48.160;11.452;2022-10-31T15:34:39;17.40;99.90
30473;DHT22;17263;48.160;11.452;2022-10-31T15:37:16;17.30;99.90
30473;DHT22;17263;48.160;11.452;2022-10-31T15:39:44;17.20;99.90
30473;DHT22;17263;48.160;11.452;2022-10-31T15:44:57;17.00;99.90
30473;DHT22;17263;48.160;11.452;2022-10-31T15:47:25;16.80;99.90
30473;DHT22;17263;48.160;11.452;2022-10-31T15:49:54;16.70;99.90
30473;DHT22;17263;48.160;11.452;2022-10-31T15:54:54;16.50;99.90
30473;DHT22;17263;48.160;11.452;2022-10-31T15:57:23;16.50;99.90
30473;DHT22;17263;48.160;11.452;2022-10-31T15:59:49;16.40;99.90
30473;DHT22;17263;48.160;11.452;2022-10-31T16:02:26;16.30;99.90
30473;DHT22;17263;48.160;11.452;2022-10-31T16:04:59;16.30;99.90
30473;DHT22;17263;48.160;11.452;2022-10-31T16:07:26;16.20;99.90
30473;DHT22;17263;48.160;11.452;2022-10-31T16:10:02;16.10;99.90
30473;DHT22;17263;48.160;11.452;2022-10-31T16:12:37;16.10;99.90
30473;DHT22;17263;48.160;11.452;2022-10-31T16:15:14;16.00;99.90
30473;DHT22;17263;48.160;11.452;2022-10-31T16:17:43;15.90;99.90
30473;DHT22;17263;48.160;11.452;2022-10-31T16:20:25;15.80;99.90
30473;DHT22;17263;48.160;11.452;2022-10-31T16:22:54;15.70;99.90
30473;DHT22;17263;48.160;11.452;2022-10-31T16:25:29;15.60;99.90
30473;DHT22;17263;48.160;11.452;2022-10-31T16:28:03;15.50;99.90
30473;DHT22;17263;48.160;11.452;2022-10-31T16:30:45;15.40;99.90
30473;DHT22;17263;48.160;11.452;2022-10-31T16:33:31;15.30;99.90
30473;DHT22;17263;48.160;11.452;2022-10-31T16:38:54;15.10;99.90
30473;DHT22;17263;48.160;11.452;2022-10-31T16:41:21;15.10;99.90
30473;DHT22;17263;48.160;11.452;2022-10-31T16:43:47;15.00;99.90
30473;DHT22;17263;48.160;11.452;2022-10-31T16:46:16;14.90;99.90
30473;DHT22;17263;48.160;11.452;2022-10-31T16:48:44;14.90;99.90
30473;DHT22;17263;48.160;11.452;2022-10-31T16:51:10;14.80;99.90
30473;DHT22;17263;48.160;11.452;2022-10-31T16:53:36;14.70;99.90
30473;DHT22;17263;48.160;11.452;2022-10-31T16:56:03;14.60;99.90
30473;DHT22;17263;48.160;11.452;2022-10-31T16:58:32;14.50;99.90
30473;DHT22;17263;48.160;11.452;2022-10-31T17:00:59;14.50;99.90
30473;DHT22;17263;48.160;11.452;2022-10-31T17:03:26;14.40;99.90
30473;DHT22;17263;48.160;11.452;2022-10-31T17:05:53;14.30;99.90
30473;DHT22;17263;48.160;11.452;2022-10-31T17:08:21;14.30;99.90
30473;DHT22;17263;48.160;11.452;2022-10-31T17:10:49;14.20;99.90
30473;DHT22;17263;48.160;11.452;2022-10-31T17:13:22;14.10;99.90
30473;DHT22;17263;48.160;11.452;2022-10-31T17:15:58;14.10;99.90
30473;DHT22;17263;48.160;11.452;2022-10-31T17:18:25;14.00;99.90
30473;DHT22;17263;48.160;11.452;2022-10-31T17:20:55;13.90;99.90
30473;DHT22;17263;48.160;11.452;2022-10-31T17:23:22;13.90;99.90
30473;DHT22;17263;48.160;11.452;2022-10-31T17:25:48;13.80;99.90
30473;DHT22;17263;48.160;11.452;2022-10-31T17:28:14;13.80;99.90
30473;DHT22;17263;48.160;11.452;2022-10-31T17:30:41;13.70;99.90
30473;DHT22;17263;48.160;11.452;2022-10-31T17:33:15;13.70;99.90
30473;DHT22;17263;48.160;11.452;2022-10-31T17:35:42;13.60;99.90
30473;DHT22;17263;48.160;11.452;2022-10-31T17:38:10;13.50;99.90
30473;DHT22;17263;48.160;11.452;2022-10-31T17:40:37;13.40;99.90
30473;DHT22;17263;48.160;11.452;2022-10-31T17:43:04;13.40;99.90
30473;DHT22;17263;48.160;11.452;2022-10-31T17:45:30;13.40;99.90
30473;DHT22;17263;48.160;11.452;2022-10-31T17:47:57;13.40;99.90